Time;durP1;ratioP1;P1;durP2;ratioP2;P2;SDS_P1;SDS_P2;PMS_P1;PMS_P2;Temp;Humidity;BMP_temperature;BMP_pressure;BME280_temperature;BME280_humidity;BME280_pressure;Samples;Min_cycle;Max_cycle;Signal;HPM_P1;HPM_P2
2023/09/20 00:00:33;;;;;;;0.70;0.70;;;18.00;99.90;;;;;;4987197;28;20162;-90
2023/09/20 00:02:59;;;;;;;0.70;0.70;;;18.00;99.90;;;;;;4990526;28;20522;-87
2023/09/20 00:05:26;;;;;;;0.70;0.70;;;18.00;99.90;;;;;;4991568;28;20487;-87
2023/09/20 00:07:56;;;;;;;0.65;0.65;;;18.00;99.90;;;;;;4988263;28;20060;-85
2023/09/20 00:10:22;;;;;;;0.70;0.70;;;18.00;99.90;;;;;;4973807;28;20046;-88
2023/09/20 00:12:48;;;;;;;0.70;0.70;;;18.00;99.90;;;;;;4972763;28;20136;-87
2023/09/20 00:15:14;;;;;;;0.70;0.70;;;18.00;99.90;;;;;;4985360;28;20054;-88
2023/09/20 00:17:40;;;;;;;0.70;0.70;;;18.00;99.90;;;;;;4985185;28;20148;-87
2023/09/20 00:20:13;;;;;;;0.70;0.70;;;18.00;99.90;;;;;;4964307;28;20050;-81
2023/09/20 00:22:40;;;;;;;0.60;0.60;;;18.00;99.90;;;;;;4998880;28;20146;-86
2023/09/20 00:25:10;;;;;;;0.70;0.70;;;17.90;99.90;;;;;;4978881;28;20553;-83
2023/09/20 00:27:38;;;;;;;0.70;0.70;;;18.00;99.90;;;;;;4986030;28;20045;-86
2023/09/20 00:30:10;;;;;;;0.60;0.60;;;18.00;99.90;;;;;;4988399;28;20046;-85
2023/09/20 00:32:37;;;;;;;0.70;0.70;;;18.00;99.90;;;;;;4989169;28;20120;-90
2023/09/20 00:35:03;;;;;;;0.70;0.70;;;18.00;99.90;;;;;;4976716;28;20414;-87
2023/09/20 00:37:30;;;;;;;0.70;0.70;;;18.00;99.90;;;;;;4973897;28;20042;-87
2023/09/20 00:39:55;;;;;;;0.63;0.63;;;18.00;99.90;;;;;;4989066;28;20624;-87
2023/09/20 00:42:21;;;;;;;0.60;0.60;;;17.90;99.90;;;;;;4978685;28;22024;-86
2023/09/20 00:44:47;;;;;;;0.70;0.70;;;17.90;99.90;;;;;;4979022;28;20057;-84
2023/09/20 00:47:14;;;;;;;0.70;0.70;;;17.90;99.90;;;;;;4970986;28;20060;-88
2023/09/20 00:49:45;;;;;;;0.70;0.70;;;18.00;99.90;;;;;;4997160;28;20071;-89
2023/09/20 00:52:13;;;;;;;0.70;0.70;;;18.00;99.90;;;;;;4973521;28;20052;-84
2023/09/20 00:54:41;;;;;;;0.60;0.60;;;18.00;99.90;;;;;;4971384;28;20046;-85
2023/09/20 00:57:09;;;;;;;0.60;0.60;;;18.10;99.90;;;;;;4981429;28;20458;-83
2023/09/20 00:59:36;;;;;;;0.60;0.60;;;18.00;99.90;;;;;;4988053;28;20081;-85
2023/09/20 01:02:03;;;;;;;0.70;0.70;;;18.00;99.90;;;;;;4992444;28;20076;-89
2023/09/20 01:04:29;;;;;;;0.55;0.55;;;18.00;99.90;;;;;;4990289;28;20046;-82
2023/09/20 01:06:58;;;;;;;0.60;0.60;;;18.10;99.90;;;;;;4990894;28;20123;-90
2023/09/20 01:09:24;;;;;;;0.60;0.60;;;18.10;99.90;;;;;;4973359;28;20084;-84
2023/09/20 01:11:51;;;;;;;0.55;0.55;;;18.10;99.90;;;;;;4986586;28;20054;-85
2023/09/20 01:14:17;;;;;;;0.50;0.50;;;18.10;99.90;;;;;;4990054;28;20129;-90
2023/09/20 01:16:43;;;;;;;0.60;0.60;;;18.00;99.90;;;;;;4979070;28;20045;-87
2023/09/20 01:19:09;;;;;;;0.60;0.60;;;18.00;99.90;;;;;;4990770;28;20092;-83
2023/09/20 01:21:44;;;;;;;0.60;0.60;;;18.10;99.90;;;;;;4988191;28;20041;-86
2023/09/20 01:24:10;;;;;;;0.60;0.60;;;18.10;99.90;;;;;;4982825;28;20049;-88
2023/09/20 01:26:39;;;;;;;0.60;0.60;;;18.10;99.90;;;;;;4973326;28;20093;-83
2023/09/20 01:29:05;;;;;;;0.60;0.60;;;18.10;99.90;;;;;;4985447;28;20084;-90
2023/09/20 01:31:31;;;;;;;0.60;0.60;;;18.10;99.90;;;;;;4990570;28;20477;-84
2023/09/20 01:33:57;;;;;;;0.60;0.60;;;18.20;99.90;;;;;;4987612;28;20042;-84
2023/09/20 01:36:22;;;;;;;0.60;0.60;;;18.10;99.90;;;;;;4985275;28;20057;-89
2023/09/20 01:38:48;;;;;;;0.60;0.60;;;18.20;99.90;;;;;;4985641;28;20041;-88
2023/09/20 01:41:14;;;;;;;0.60;0.60;;;18.20;99.90;;;;;;4987489;28;20049;-84
2023/09/20 01:43:41;;;;;;;0.60;0.60;;;18.20;99.90;;;;;;4989308;28;20042;-85
2023/09/20 01:46:07;;;;;;;0.50;0.50;;;18.10;99.90;;;;;;4990542;28;20107;-87
2023/09/20 01:48:34;;;;;;;0.60;0.60;;;18.10;99.90;;;;;;4986106;28;20582;-84
2023/09/20 01:51:02;;;;;;;0.60;0.60;;;18.20;99.90;;;;;;4984610;28;20081;-89
2023/09/20 01:53:27;;;;;;;0.60;0.60;;;18.20;99.90;;;;;;4984393;28;20104;-88
2023/09/20 01:56:00;;;;;;;0.60;0.60;;;18.20;99.90;;;;;;4983629;28;20049;-87
2023/09/20 01:58:26;;;;;;;0.50;0.50;;;18.10;99.90;;;;;;4976774;28;20058;-89
2023/09/20 02:00:51;;;;;;;0.52;0.52;;;18.10;99.90;;;;;;4976531;28;20500;-86
2023/09/20 02:03:17;;;;;;;0.55;0.55;;;18.10;99.90;;;;;;4978723;28;20057;-82
2023/09/20 02:05:46;;;;;;;0.60;0.60;;;18.10;99.90;;;;;;4968903;28;20042;-85
2023/09/20 02:08:11;;;;;;;0.60;0.60;;;18.10;99.90;;;;;;4984380;28;20060;-85
2023/09/20 02:10:38;;;;;;;0.60;0.60;;;18.10;99.90;;;;;;4984220;28;20046;-86
2023/09/20 02:13:04;;;;;;;0.60;0.60;;;18.00;99.90;;;;;;4998064;28;20053;-85
2023/09/20 02:15:31;;;;;;;0.50;0.50;;;18.10;99.90;;;;;;4986593;28;20634;-85
2023/09/20 02:17:57;;;;;;;0.60;0.60;;;18.10;99.90;;;;;;4970229;28;20049;-87
2023/09/20 02:20:24;;;;;;;0.60;0.60;;;18.00;99.90;;;;;;4968961;28;20042;-86
2023/09/20 02:22:55;;;;;;;0.60;0.60;;;18.00;99.90;;;;;;4998286;28;20061;-86
2023/09/20 02:25:22;;;;;;;0.60;0.60;;;18.00;99.90;;;;;;4978807;28;20050;-83
2023/09/20 02:28:03;;;;;;;0.60;0.60;;;18.00;99.90;;;;;;4985619;28;20054;-90
2023/09/20 02:30:31;;;;;;;0.60;0.60;;;18.10;99.90;;;;;;4971742;28;20045;-82
2023/09/20 02:32:57;;;;;;;0.60;0.60;;;18.00;99.90;;;;;;4986836;28;20069;-87
2023/09/20 02:35:28;;;;;;;0.60;0.60;;;18.10;99.90;;;;;;4986225;28;20127;-84
2023/09/20 02:37:54;;;;;;;0.60;0.60;;;18.00;99.90;;;;;;4982266;28;20056;-85
2023/09/20 02:40:23;;;;;;;0.60;0.60;;;18.00;99.90;;;;;;4974630;28;20038;-84
2023/09/20 02:42:58;;;;;;;0.60;0.60;;;18.00;99.90;;;;;;5006436;28;20064;-82
2023/09/20 02:45:25;;;;;;;0.60;0.60;;;18.00;99.90;;;;;;4989192;28;20129;-86
2023/09/20 02:47:52;;;;;;;0.60;0.60;;;18.00;99.90;;;;;;4989831;28;20089;-83
2023/09/20 02:50:22;;;;;;;0.60;0.60;;;18.00;99.90;;;;;;4993290;28;20041;-82
2023/09/20 02:52:48;;;;;;;0.60;0.60;;;17.90;99.90;;;;;;4989477;28;20096;-90
2023/09/20 02:55:20;;;;;;;0.60;0.60;;;17.90;99.90;;;;;;4973723;28;20070;-87
2023/09/20 02:57:52;;;;;;;0.60;0.60;;;18.00;99.90;;;;;;4989497;28;20128;-84
2023/09/20 03:00:30;;;;;;;0.60;0.60;;;17.90;99.90;;;;;;4973641;28;20546;-87
2023/09/20 03:02:58;;;;;;;0.60;0.60;;;17.90;99.90;;;;;;4987714;28;20081;-83
2023/09/20 03:05:28;;;;;;;0.60;0.60;;;17.90;99.90;;;;;;4972823;28;20495;-88
2023/09/20 03:07:55;;;;;;;0.60;0.60;;;17.90;99.90;;;;;;4987930;28;20042;-86
2023/09/20 03:10:21;;;;;;;0.60;0.60;;;17.90;99.90;;;;;;4989654;28;20077;-86
2023/09/20 03:12:51;;;;;;;0.60;0.60;;;17.90;99.90;;;;;;4989313;28;20957;-83
2023/09/20 03:15:23;;;;;;;0.60;0.60;;;17.90;99.90;;;;;;4973477;28;20141;-89
2023/09/20 03:17:53;;;;;;;0.60;0.60;;;17.90;99.90;;;;;;4973002;28;20041;-83
2023/09/20 03:20:24;;;;;;;0.60;0.60;;;17.90;99.90;;;;;;4991497;28;20053;-86
2023/09/20 03:22:55;;;;;;;0.50;0.50;;;17.90;99.90;;;;;;4988938;28;20061;-83
2023/09/20 03:25:28;;;;;;;0.60;0.60;;;17.80;99.90;;;;;;4992460;28;20049;-84
2023/09/20 03:27:55;;;;;;;0.60;0.60;;;17.90;99.90;;;;;;4987694;28;20049;-87
2023/09/20 03:30:21;;;;;;;0.60;0.60;;;17.80;99.90;;;;;;4989561;28;20050;-88
2023/09/20 03:32:50;;;;;;;0.60;0.60;;;17.90;99.90;;;;;;4988351;28;20077;-87
2023/09/20 03:35:19;;;;;;;0.60;0.60;;;17.80;99.90;;;;;;4987950;28;20053;-86
2023/09/20 03:37:46;;;;;;;0.60;0.60;;;17.80;99.90;;;;;;4970744;28;20046;-85
2023/09/20 03:40:17;;;;;;;0.70;0.70;;;17.60;99.90;;;;;;4988066;28;20041;-83
2023/09/20 03:42:52;;;;;;;0.60;0.60;;;17.60;99.90;;;;;;4987165;28;20129;-82
2023/09/20 03:45:19;;;;;;;0.70;0.70;;;17.50;99.90;;;;;;4990185;28;20084;-84
2023/09/20 03:47:56;;;;;;;0.70;0.70;;;17.40;99.90;;;;;;4987380;28;20056;-81
2023/09/20 03:50:22;;;;;;;0.70;0.70;;;17.40;99.90;;;;;;4988188;28;20084;-86
2023/09/20 03:52:48;;;;;;;0.70;0.70;;;17.30;99.90;;;;;;4989000;28;20084;-85
2023/09/20 03:55:14;;;;;;;0.77;0.77;;;17.30;99.90;;;;;;4987867;28;20081;-81
2023/09/20 03:57:40;;;;;;;0.73;0.73;;;17.20;99.90;;;;;;4985649;28;20819;-83
2023/09/20 04:00:11;;;;;;;0.80;0.80;;;17.20;99.90;;;;;;4988561;28;20553;-89
2023/09/20 04:02:37;;;;;;;0.80;0.80;;;17.10;99.90;;;;;;5004132;28;20048;-85
2023/09/20 04:05:16;;;;;;;0.80;0.80;;;17.00;99.90;;;;;;4987563;28;20402;-83
2023/09/20 04:07:44;;;;;;;1.00;1.00;;;17.00;99.90;;;;;;4972500;28;20495;-82
2023/09/20 04:10:10;;;;;;;0.80;0.80;;;16.90;99.90;;;;;;4988680;28;20503;-84
2023/09/20 04:12:36;;;;;;;0.73;0.73;;;16.90;99.90;;;;;;4989355;28;20100;-83
2023/09/20 04:15:06;;;;;;;0.85;0.85;;;16.90;99.90;;;;;;4988251;28;20050;-86
2023/09/20 04:17:38;;;;;;;0.85;0.85;;;16.90;99.90;;;;;;4970856;28;20125;-84
2023/09/20 04:20:05;;;;;;;0.90;0.90;;;16.80;99.90;;;;;;4987808;28;20050;-82
2023/09/20 04:22:32;;;;;;;0.90;0.90;;;16.80;99.90;;;;;;4989233;28;20120;-84
2023/09/20 04:25:01;;;;;;;0.80;0.80;;;16.70;99.90;;;;;;4987760;28;20054;-83
2023/09/20 04:27:28;;;;;;;0.90;0.90;;;16.70;99.90;;;;;;4987905;28;20038;-85
2023/09/20 04:29:54;;;;;;;1.15;1.05;;;16.60;99.90;;;;;;4988493;28;20065;-88
2023/09/20 04:32:20;;;;;;;0.82;0.82;;;16.60;99.90;;;;;;4987096;28;20046;-82
2023/09/20 04:34:45;;;;;;;0.80;0.80;;;16.60;99.90;;;;;;4986076;28;20046;-87
2023/09/20 04:37:16;;;;;;;0.90;0.90;;;16.60;99.90;;;;;;5001236;28;20062;-84
2023/09/20 04:39:42;;;;;;;0.80;0.80;;;16.60;99.90;;;;;;4984440;28;20088;-84
2023/09/20 04:42:10;;;;;;;0.98;0.98;;;16.50;99.90;;;;;;4985982;28;20467;-83
2023/09/20 04:44:36;;;;;;;0.90;0.90;;;16.50;99.90;;;;;;4986724;28;20091;-84
2023/09/20 04:47:02;;;;;;;0.90;0.90;;;16.50;99.90;;;;;;4970119;28;20285;-83
2023/09/20 04:49:27;;;;;;;0.98;0.98;;;16.60;99.90;;;;;;4990291;28;20042;-85
2023/09/20 04:51:53;;;;;;;0.80;0.80;;;16.50;99.90;;;;;;4974767;28;20447;-84
2023/09/20 04:54:21;;;;;;;1.10;1.10;;;16.50;99.90;;;;;;4986521;28;20041;-86
2023/09/20 04:56:47;;;;;;;0.80;0.80;;;16.60;99.90;;;;;;4998512;28;20477;-86
2023/09/20 04:59:16;;;;;;;0.80;0.80;;;16.60;99.90;;;;;;4985312;28;20415;-84
2023/09/20 05:01:42;;;;;;;0.80;0.80;;;16.60;99.90;;;;;;4968927;28;20104;-86
2023/09/20 05:04:13;;;;;;;0.80;0.80;;;16.50;99.90;;;;;;4986447;28;20435;-84
2023/09/20 05:06:45;;;;;;;0.80;0.80;;;16.50;99.90;;;;;;4984235;28;20496;-86
2023/09/20 05:09:12;;;;;;;0.90;0.90;;;16.50;99.90;;;;;;4987889;28;20045;-88
2023/09/20 05:11:38;;;;;;;0.90;0.90;;;16.60;99.90;;;;;;5004172;28;20543;-86
2023/09/20 05:14:06;;;;;;;0.88;0.88;;;16.50;99.90;;;;;;5001951;28;20053;-85
2023/09/20 05:16:35;;;;;;;0.80;0.80;;;16.60;99.90;;;;;;4988231;28;20125;-89
2023/09/20 05:19:01;;;;;;;0.90;0.90;;;16.50;99.90;;;;;;4973104;28;20057;-87
2023/09/20 05:21:26;;;;;;;0.80;0.80;;;16.50;99.90;;;;;;4991322;28;20042;-87
2023/09/20 05:23:55;;;;;;;0.80;0.80;;;16.40;99.90;;;;;;4973359;28;20052;-89
2023/09/20 05:26:23;;;;;;;1.00;1.00;;;16.50;99.90;;;;;;4987089;28;20488;-84
2023/09/20 05:28:48;;;;;;;0.70;0.70;;;16.50;99.90;;;;;;4981773;28;20765;-84
2023/09/20 05:31:15;;;;;;;0.80;0.80;;;16.50;99.90;;;;;;4982187;28;20042;-85
2023/09/20 05:33:41;;;;;;;0.98;0.98;;;16.60;99.90;;;;;;4986274;28;20046;-83
2023/09/20 05:36:07;;;;;;;0.88;0.88;;;16.60;99.90;;;;;;4985051;28;20053;-87
2023/09/20 05:38:32;;;;;;;1.00;1.00;;;16.60;99.90;;;;;;4985756;28;20042;-85
2023/09/20 05:40:58;;;;;;;0.80;0.80;;;16.60;99.90;;;;;;4985208;28;20050;-86
2023/09/20 05:43:24;;;;;;;0.88;0.88;;;16.70;99.90;;;;;;4967035;28;20048;-86
2023/09/20 05:45:49;;;;;;;0.80;0.80;;;16.80;99.90;;;;;;4985533;28;20124;-85
2023/09/20 05:48:16;;;;;;;1.00;1.00;;;16.80;99.90;;;;;;4969568;28;20111;-86
2023/09/20 05:50:42;;;;;;;0.90;0.90;;;16.80;99.90;;;;;;4986430;28;20054;-87
2023/09/20 05:53:14;;;;;;;0.80;0.80;;;17.00;99.90;;;;;;4981273;28;20061;-88
2023/09/20 05:55:42;;;;;;;1.30;1.20;;;17.00;99.90;;;;;;4967666;28;20052;-85
2023/09/20 05:58:08;;;;;;;0.85;0.85;;;17.00;99.90;;;;;;4985104;28;20057;-86
2023/09/20 06:00:35;;;;;;;0.80;0.80;;;17.00;99.90;;;;;;4982416;28;20573;-87
2023/09/20 06:03:03;;;;;;;0.80;0.80;;;17.20;99.90;;;;;;4984779;28;20053;-85
2023/09/20 06:05:32;;;;;;;0.80;0.80;;;17.10;99.90;;;;;;4983978;28;20046;-85
2023/09/20 06:07:57;;;;;;;0.80;0.80;;;17.10;99.90;;;;;;4985209;28;20189;-82
2023/09/20 06:10:23;;;;;;;0.70;0.70;;;17.10;99.90;;;;;;4988479;28;20046;-84
2023/09/20 06:12:52;;;;;;;0.70;0.70;;;17.10;99.90;;;;;;4992727;28;20057;-85
2023/09/20 06:15:18;;;;;;;0.80;0.80;;;17.10;99.90;;;;;;4990748;28;20088;-88
2023/09/20 06:17:48;;;;;;;0.70;0.70;;;17.20;99.90;;;;;;4974304;28;20052;-87
2023/09/20 06:20:19;;;;;;;0.70;0.70;;;17.10;99.90;;;;;;4990822;28;20053;-87
2023/09/20 06:22:56;;;;;;;0.75;0.75;;;17.20;99.90;;;;;;4991005;28;20053;-87
2023/09/20 06:25:22;;;;;;;0.80;0.80;;;17.30;99.90;;;;;;4989779;28;20077;-85
2023/09/20 06:27:55;;;;;;;0.80;0.80;;;17.40;99.90;;;;;;4988484;28;20060;-87
2023/09/20 06:30:21;;;;;;;0.80;0.80;;;17.60;99.90;;;;;;4973006;28;20049;-82
2023/09/20 06:32:47;;;;;;;0.70;0.70;;;17.60;99.90;;;;;;4991568;28;20038;-86
2023/09/20 06:35:19;;;;;;;0.70;0.70;;;17.60;99.90;;;;;;4990894;28;20077;-85
2023/09/20 06:37:47;;;;;;;0.70;0.70;;;17.70;99.90;;;;;;4990383;28;20052;-91
2023/09/20 06:40:23;;;;;;;0.70;0.70;;;17.80;99.90;;;;;;4982578;28;21608;-88
2023/09/20 06:42:50;;;;;;;0.60;0.60;;;17.90;99.90;;;;;;4988582;28;20049;-88
2023/09/20 06:45:19;;;;;;;0.60;0.60;;;18.00;99.90;;;;;;4988976;28;20104;-88
2023/09/20 06:47:45;;;;;;;0.60;0.60;;;18.00;99.90;;;;;;4973967;28;20404;-82
2023/09/20 06:50:15;;;;;;;0.60;0.60;;;18.20;99.90;;;;;;4990981;28;20085;-87
2023/09/20 06:52:45;;;;;;;0.60;0.60;;;18.30;99.90;;;;;;4991551;28;20052;-87
2023/09/20 06:55:17;;;;;;;0.50;0.50;;;18.50;99.90;;;;;;4991722;28;20057;-85
2023/09/20 06:57:43;;;;;;;0.60;0.60;;;18.50;99.90;;;;;;4974181;28;20046;-86
2023/09/20 07:00:25;;;;;;;0.50;0.50;;;18.70;99.90;;;;;;4970900;28;20404;-88
2023/09/20 07:02:57;;;;;;;0.50;0.50;;;18.90;99.90;;;;;;4988942;28;20081;-84
2023/09/20 07:05:24;;;;;;;0.50;0.50;;;19.10;99.90;;;;;;4989823;28;20061;-86
2023/09/20 07:07:51;;;;;;;0.55;0.55;;;19.00;99.90;;;;;;4974509;28;20491;-83
2023/09/20 07:10:17;;;;;;;0.60;0.60;;;19.20;99.90;;;;;;5001594;28;20104;-84
2023/09/20 07:12:46;;;;;;;0.50;0.50;;;19.20;99.90;;;;;;4975243;28;20504;-82
2023/09/20 07:15:16;;;;;;;0.57;0.57;;;19.10;99.90;;;;;;4977217;28;20377;-84
2023/09/20 07:17:42;;;;;;;0.60;0.60;;;19.10;99.90;;;;;;4989693;28;20060;-86
2023/09/20 07:20:14;;;;;;;0.50;0.50;;;19.20;99.90;;;;;;4987872;28;20136;-88
2023/09/20 07:22:41;;;;;;;0.52;0.52;;;19.40;99.90;;;;;;4973401;28;20058;-87
2023/09/20 07:25:08;;;;;;;0.60;0.60;;;19.40;99.90;;;;;;4974063;28;20241;-93
2023/09/20 07:27:34;;;;;;;0.60;0.60;;;19.40;99.90;;;;;;4989744;28;20081;-89
2023/09/20 07:30:04;;;;;;;0.60;0.60;;;19.50;99.90;;;;;;4991287;28;20139;-89
2023/09/20 07:32:30;;;;;;;0.60;0.60;;;19.40;99.90;;;;;;4989077;28;20050;-83
2023/09/20 07:34:59;;;;;;;0.55;0.55;;;19.50;99.90;;;;;;4990193;28;20085;-87
2023/09/20 07:37:25;;;;;;;0.60;0.60;;;19.60;99.90;;;;;;4974815;28;20038;-84
2023/09/20 07:39:52;;;;;;;0.60;0.60;;;19.30;99.90;;;;;;4992825;28;20046;-87
2023/09/20 07:42:17;;;;;;;0.70;0.70;;;19.60;99.90;;;;;;4991420;28;20125;-86
2023/09/20 07:44:43;;;;;;;0.60;0.60;;;19.60;99.90;;;;;;4990554;28;20188;-84
2023/09/20 07:47:11;;;;;;;0.70;0.70;;;19.70;99.90;;;;;;4989517;28;20042;-84
2023/09/20 07:49:40;;;;;;;0.65;0.65;;;19.80;99.90;;;;;;4990655;28;20253;-86
2023/09/20 07:52:09;;;;;;;0.70;0.70;;;20.00;99.90;;;;;;4986696;28;20128;-85
2023/09/20 07:54:35;;;;;;;0.70;0.70;;;20.00;99.90;;;;;;4988597;28;20486;-85
2023/09/20 07:57:00;;;;;;;0.75;0.75;;;20.00;99.90;;;;;;4976211;28;20085;-83
2023/09/20 07:59:26;;;;;;;0.80;0.80;;;20.20;99.90;;;;;;4989537;28;20081;-83
2023/09/20 08:01:53;;;;;;;0.70;0.70;;;20.30;99.90;;;;;;4988047;28;20128;-87
2023/09/20 08:04:23;;;;;;;0.80;0.80;;;20.30;99.90;;;;;;4986300;28;20125;-86
2023/09/20 08:06:48;;;;;;;0.80;0.80;;;20.30;99.90;;;;;;4971015;28;20046;-84
2023/09/20 08:09:20;;;;;;;0.80;0.80;;;20.00;99.90;;;;;;4982484;28;20128;-88
2023/09/20 08:11:50;;;;;;;0.90;0.90;;;20.20;99.90;;;;;;4990390;28;20057;-92
2023/09/20 08:14:19;;;;;;;0.82;0.82;;;19.90;99.90;;;;;;4991688;28;20050;-88
2023/09/20 08:19:31;;;;;;;1.00;1.00;;;20.10;99.90;;;;;;4988957;28;20466;-83
2023/09/20 08:21:56;;;;;;;0.90;0.90;;;20.30;99.90;;;;;;4963999;28;20491;-87
2023/09/20 09:00:24;;;;;;;1.02;1.02;;;20.10;99.90;;;;;;4986149;28;20632;-90
2023/09/20 09:02:54;;;;;;;1.10;1.10;;;20.40;99.90;;;;;;4968805;28;20478;-85
2023/09/20 09:05:23;;;;;;;0.95;0.95;;;20.40;99.90;;;;;;4984520;28;20058;-81
2023/09/20 09:07:49;;;;;;;0.90;0.90;;;20.70;99.90;;;;;;4987220;28;20125;-86
2023/09/20 09:10:15;;;;;;;0.90;0.90;;;20.40;99.90;;;;;;4972086;28;20049;-85
2023/09/20 09:12:42;;;;;;;0.90;0.90;;;20.40;99.90;;;;;;4988500;28;20112;-82
2023/09/20 09:15:10;;;;;;;0.85;0.85;;;20.30;99.90;;;;;;4988142;28;20049;-88
2023/09/20 09:17:40;;;;;;;1.10;1.10;;;20.10;99.90;;;;;;4986108;28;20060;-82
2023/09/20 09:20:10;;;;;;;0.90;0.90;;;20.10;99.90;;;;;;4972487;28;20136;-87
2023/09/20 09:22:38;;;;;;;0.90;0.90;;;20.20;99.90;;;;;;4988224;28;20096;-85
2023/09/20 09:25:10;;;;;;;1.00;1.00;;;20.30;99.90;;;;;;4990144;28;20042;-89
2023/09/20 09:27:39;;;;;;;0.95;0.95;;;20.40;99.90;;;;;;4985981;28;20065;-81
2023/09/20 09:30:17;;;;;;;0.90;0.90;;;20.70;99.90;;;;;;4989615;28;20103;-92
2023/09/20 09:32:45;;;;;;;0.90;0.90;;;20.60;99.90;;;;;;4987848;28;20049;-82
2023/09/20 09:35:19;;;;;;;0.80;0.80;;;20.60;99.90;;;;;;4987486;28;20171;-86
2023/09/20 09:37:45;;;;;;;0.80;0.80;;;20.70;99.90;;;;;;4976295;28;20053;-83
2023/09/20 09:40:14;;;;;;;0.77;0.77;;;20.80;99.90;;;;;;5004979;28;20046;-88
2023/09/20 09:42:43;;;;;;;0.75;0.75;;;20.60;99.90;;;;;;4987838;28;20108;-89
2023/09/20 09:45:34;;;;;;;0.70;0.70;;;20.60;99.90;;;;;;4991928;28;20062;-84
2023/09/20 09:48:06;;;;;;;0.70;0.70;;;20.50;99.90;;;;;;4993783;28;20054;-83
2023/09/20 09:50:38;;;;;;;0.70;0.70;;;20.50;99.90;;;;;;4994142;28;20157;-85
2023/09/20 09:53:08;;;;;;;0.60;0.60;;;20.30;99.90;;;;;;4977901;28;20078;-86
2023/09/20 09:55:35;;;;;;;0.70;0.70;;;20.40;99.90;;;;;;4976688;28;20049;-85
2023/09/20 09:58:04;;;;;;;0.70;0.70;;;20.40;99.90;;;;;;4994465;28;20108;-85
2023/09/20 10:00:32;;;;;;;0.70;0.70;;;20.40;99.90;;;;;;4994081;28;20561;-87
2023/09/20 10:03:06;;;;;;;0.70;0.70;;;20.50;99.90;;;;;;4993824;28;20048;-86
2023/09/20 10:05:33;;;;;;;0.70;0.70;;;20.40;99.90;;;;;;4993370;28;20116;-85
2023/09/20 10:08:01;;;;;;;0.70;0.70;;;20.30;99.90;;;;;;5003773;28;20046;-84
2023/09/20 10:10:27;;;;;;;0.70;0.70;;;20.40;99.90;;;;;;4994500;28;20045;-87
2023/09/20 10:12:53;;;;;;;0.70;0.70;;;20.50;99.90;;;;;;4994681;28;20046;-85
2023/09/20 10:15:22;;;;;;;0.73;0.73;;;20.50;99.90;;;;;;4978145;28;20062;-82
2023/09/20 10:17:54;;;;;;;0.85;0.85;;;20.50;99.90;;;;;;4976165;28;20054;-83
2023/09/20 10:20:22;;;;;;;0.70;0.70;;;20.40;99.90;;;;;;4976344;28;20049;-83
2023/09/20 10:22:52;;;;;;;0.70;0.70;;;20.50;99.90;;;;;;4992669;28;20100;-91
2023/09/20 10:25:35;;;;;;;0.70;0.70;;;20.70;99.90;;;;;;4970217;28;20683;-85
2023/09/20 10:28:09;;;;;;;0.60;0.60;;;20.60;99.90;;;;;;5001858;28;20072;-87
2023/09/20 10:31:01;;;;;;;0.60;0.60;;;20.70;99.90;;;;;;4991051;28;20046;-84
2023/09/20 10:33:43;;;;;;;0.60;0.60;;;20.60;99.90;;;;;;4991808;28;20499;-85
2023/09/20 10:36:19;;;;;;;0.60;0.60;;;20.60;99.90;;;;;;4975383;28;20050;-86
2023/09/20 10:38:46;;;;;;;0.60;0.60;;;20.50;99.90;;;;;;4980752;28;20050;-81
2023/09/20 10:41:13;;;;;;;0.65;0.65;;;20.40;99.90;;;;;;4994125;28;20404;-83
2023/09/20 10:43:40;;;;;;;0.60;0.60;;;20.30;99.90;;;;;;4993872;28;20057;-87
2023/09/20 10:46:19;;;;;;;0.68;0.68;;;20.30;99.90;;;;;;4993198;28;20053;-86
2023/09/20 10:48:50;;;;;;;0.60;0.60;;;20.50;99.90;;;;;;4975248;28;20373;-83
2023/09/20 10:51:38;;;;;;;0.60;0.60;;;20.40;99.90;;;;;;4969252;28;20038;-86
2023/09/20 10:54:23;;;;;;;0.60;0.60;;;20.50;99.90;;;;;;5007250;28;20424;-84
2023/09/20 10:56:51;;;;;;;0.65;0.65;;;20.70;99.90;;;;;;4989601;28;20054;-83
2023/09/20 10:59:18;;;;;;;0.60;0.60;;;20.90;99.90;;;;;;4974635;28;20042;-85
2023/09/20 11:01:51;;;;;;;0.60;0.60;;;21.10;99.90;;;;;;4976490;28;20048;-84
2023/09/20 11:04:17;;;;;;;0.60;0.60;;;21.00;99.90;;;;;;4993546;28;20057;-82
2023/09/20 11:06:50;;;;;;;0.57;0.57;;;20.90;99.90;;;;;;4991212;28;20054;-84
2023/09/20 11:09:23;;;;;;;0.50;0.50;;;20.80;99.90;;;;;;4990353;28;20038;-89
2023/09/20 11:11:50;;;;;;;0.52;0.52;;;21.10;99.90;;;;;;4974604;28;20396;-84
2023/09/20 11:14:18;;;;;;;0.50;0.50;;;21.10;99.90;;;;;;4991156;28;20050;-83
2023/09/20 11:16:44;;;;;;;0.55;0.55;;;21.10;99.90;;;;;;4989819;28;20054;-88
2023/09/20 11:19:14;;;;;;;0.50;0.50;;;21.10;99.90;;;;;;4973740;28;20433;-88
2023/09/20 11:21:43;;;;;;;0.50;0.50;;;21.10;99.90;;;;;;4989778;28;20041;-84
2023/09/20 11:24:10;;;;;;;0.50;0.50;;;21.20;99.90;;;;;;4968057;28;20053;-83
2023/09/20 11:26:44;;;;;;;0.50;0.50;;;21.40;99.90;;;;;;4989833;28;20046;-88
2023/09/20 11:29:18;;;;;;;0.50;0.50;;;21.60;99.90;;;;;;4990688;28;20074;-83
2023/09/20 11:31:47;;;;;;;0.57;0.57;;;21.50;99.90;;;;;;4987490;28;20206;-88
2023/09/20 11:34:13;;;;;;;0.60;0.60;;;21.30;99.90;;;;;;4990094;28;20487;-85
2023/09/20 11:36:43;;;;;;;0.60;0.60;;;21.20;99.90;;;;;;4973108;28;20049;-90
2023/09/20 11:39:09;;;;;;;0.52;0.52;;;21.30;99.90;;;;;;4990416;28;20050;-84
2023/09/20 11:41:38;;;;;;;0.50;0.50;;;21.50;99.90;;;;;;4973134;28;20951;-86
2023/09/20 11:44:08;;;;;;;0.50;0.50;;;21.60;99.90;;;;;;4989029;28;20092;-90
2023/09/20 11:46:34;;;;;;;0.50;0.50;;;21.80;99.90;;;;;;4972677;28;20095;-88
2023/09/20 11:49:02;;;;;;;0.50;0.50;;;22.10;99.90;;;;;;4981977;28;20495;-83
2023/09/20 11:51:39;;;;;;;0.43;0.43;;;22.20;99.90;;;;;;4986245;28;20042;-86
2023/09/20 11:54:10;;;;;;;0.40;0.40;;;22.70;99.90;;;;;;4989371;28;20077;-87
2023/09/20 11:56:37;;;;;;;0.40;0.40;;;23.50;99.90;;;;;;4989072;28;20089;-85
2023/09/20 11:59:10;;;;;;;0.45;0.45;;;23.50;99.90;;;;;;4973478;28;20104;-90
2023/09/20 12:01:41;;;;;;;0.50;0.50;;;23.50;99.90;;;;;;4988909;28;20092;-86
2023/09/20 12:04:09;;;;;;;0.40;0.40;;;23.00;99.90;;;;;;4989226;28;20067;-80
2023/09/20 12:06:35;;;;;;;0.40;0.40;;;23.20;99.90;;;;;;4988733;28;20066;-84
2023/09/20 12:09:05;;;;;;;0.40;0.40;;;23.50;99.90;;;;;;5007125;28;20825;-88
2023/09/20 12:11:32;;;;;;;0.50;0.50;;;23.30;99.90;;;;;;4989485;28;20054;-84
2023/09/20 12:13:57;;;;;;;0.40;0.40;;;23.00;99.90;;;;;;4989105;28;20046;-84
2023/09/20 12:16:23;;;;;;;0.40;0.40;;;22.60;99.90;;;;;;4988582;28;20136;-88
2023/09/20 12:18:54;;;;;;;0.40;0.40;;;22.50;99.90;;;;;;5004906;28;20098;-81
2023/09/20 12:21:21;;;;;;;0.40;0.40;;;22.50;99.90;;;;;;4990305;28;20056;-86
2023/09/20 12:23:50;;;;;;;0.40;0.40;;;22.50;99.90;;;;;;4972582;28;20057;-85
2023/09/20 12:26:17;;;;;;;0.50;0.50;;;22.50;99.90;;;;;;4972558;28;20716;-82
2023/09/20 12:28:44;;;;;;;0.50;0.50;;;22.40;99.90;;;;;;4987184;28;20092;-83
2023/09/20 12:31:10;;;;;;;0.50;0.50;;;22.50;99.90;;;;;;4988334;28;20619;-89
2023/09/20 12:33:36;;;;;;;0.50;0.50;;;22.50;99.90;;;;;;4989061;28;20050;-85
2023/09/20 12:36:04;;;;;;;0.50;0.50;;;22.80;99.90;;;;;;4986127;28;20042;-84
2023/09/20 12:38:30;;;;;;;0.63;0.63;;;22.80;99.90;;;;;;4988335;28;20149;-91
2023/09/20 12:40:56;;;;;;;0.50;0.50;;;23.10;99.90;;;;;;4989502;28;20623;-86
2023/09/20 12:43:23;;;;;;;0.50;0.50;;;23.00;99.90;;;;;;5004022;28;20533;-85
2023/09/20 12:45:50;;;;;;;0.50;0.50;;;23.00;99.90;;;;;;4987509;28;20131;-82
2023/09/20 12:48:16;;;;;;;0.40;0.40;;;23.00;99.90;;;;;;4987425;28;20081;-86
2023/09/20 12:50:42;;;;;;;0.40;0.40;;;22.90;99.90;;;;;;4989822;28;20048;-86
2023/09/20 12:53:09;;;;;;;0.40;0.40;;;22.90;99.90;;;;;;4974693;28;20046;-89
2023/09/20 12:55:37;;;;;;;0.40;0.40;;;23.00;99.90;;;;;;5004582;28;20061;-84
2023/09/20 12:58:07;;;;;;;0.40;0.40;;;23.10;99.90;;;;;;4975102;28;20707;-83
2023/09/20 13:00:37;;;;;;;0.40;0.40;;;23.30;99.90;;;;;;4989529;28;20695;-86
2023/09/20 13:03:09;;;;;;;0.40;0.40;;;23.50;99.90;;;;;;4987495;28;20054;-84
2023/09/20 13:05:36;;;;;;;0.40;0.40;;;23.40;99.90;;;;;;4986703;28;20049;-83
2023/09/20 13:08:03;;;;;;;0.40;0.40;;;23.50;99.90;;;;;;4971316;28;20054;-82
2023/09/20 13:10:30;;;;;;;0.40;0.40;;;23.60;99.90;;;;;;4971910;28;20042;-84
2023/09/20 13:12:56;;;;;;;0.40;0.40;;;23.40;99.90;;;;;;4985569;28;20543;-83
2023/09/20 13:15:22;;;;;;;0.50;0.50;;;23.20;99.90;;;;;;4967255;28;20047;-89
2023/09/20 13:17:48;;;;;;;0.50;0.50;;;23.20;99.90;;;;;;4971708;28;20077;-94
2023/09/20 13:20:15;;;;;;;0.50;0.50;;;23.40;99.90;;;;;;4971381;28;20057;-84
2023/09/20 13:22:42;;;;;;;0.50;0.50;;;23.30;99.90;;;;;;4987023;28;20046;-82
2023/09/20 13:25:08;;;;;;;0.50;0.50;;;23.30;99.90;;;;;;4987801;28;20539;-84
2023/09/20 13:27:35;;;;;;;0.50;0.50;;;23.30;99.90;;;;;;4984717;28;20101;-82
2023/09/20 13:30:09;;;;;;;0.50;0.50;;;23.40;99.90;;;;;;4987702;28;20045;-82
2023/09/20 13:32:39;;;;;;;0.60;0.60;;;23.30;99.90;;;;;;4987247;28;20107;-87